sensor_id;sensor_type;location;lat;lon;timestamp;P1;durP1;ratioP1;P2;durP2;ratioP2
59366;SDS011;45163;47.690;11.770;2023-06-14T00:00:21;134.17;;;126.63;;
59366;SDS011;45163;47.690;11.770;2023-06-14T00:02:47;132.70;;;125.07;;
59366;SDS011;45163;47.690;11.770;2023-06-14T00:05:13;152.80;;;144.00;;
59366;SDS011;45163;47.690;11.770;2023-06-14T00:07:40;156.13;;;146.70;;
59366;SDS011;45163;47.690;11.770;2023-06-14T00:10:08;154.97;;;145.43;;
59366;SDS011;45163;47.690;11.770;2023-06-14T00:12:35;148.37;;;139.30;;
59366;SDS011;45163;47.690;11.770;2023-06-14T00:15:01;158.37;;;148.47;;
59366;SDS011;45163;47.690;11.770;2023-06-14T00:17:28;159.87;;;149.83;;
59366;SDS011;45163;47.690;11.770;2023-06-14T00:19:58;147.50;;;137.87;;
59366;SDS011;45163;47.690;11.770;2023-06-14T00:22:24;145.07;;;135.63;;
59366;SDS011;45163;47.690;11.770;2023-06-14T00:24:51;145.87;;;136.47;;
59366;SDS011;45163;47.690;11.770;2023-06-14T00:27:17;144.83;;;135.47;;
59366;SDS011;45163;47.690;11.770;2023-06-14T00:29:43;135.60;;;126.87;;
59366;SDS011;45163;47.690;11.770;2023-06-14T00:32:09;141.07;;;131.87;;
59366;SDS011;45163;47.690;11.770;2023-06-14T00:34:35;140.80;;;131.63;;
59366;SDS011;45163;47.690;11.770;2023-06-14T00:37:01;132.03;;;123.43;;
59366;SDS011;45163;47.690;11.770;2023-06-14T00:39:27;130.53;;;122.23;;
59366;SDS011;45163;47.690;11.770;2023-06-14T00:41:53;123.60;;;115.70;;
59366;SDS011;45163;47.690;11.770;2023-06-14T00:44:19;126.93;;;118.87;;
59366;SDS011;45163;47.690;11.770;2023-06-14T00:46:46;121.13;;;113.43;;
59366;SDS011;45163;47.690;11.770;2023-06-14T00:49:16;112.70;;;105.60;;
59366;SDS011;45163;47.690;11.770;2023-06-14T00:51:43;109.10;;;102.33;;
59366;SDS011;45163;47.690;11.770;2023-06-14T00:54:09;109.30;;;102.53;;
59366;SDS011;45163;47.690;11.770;2023-06-14T00:56:36;111.33;;;104.47;;
59366;SDS011;45163;47.690;11.770;2023-06-14T00:59:03;95.13;;;89.13;;
59366;SDS011;45163;47.690;11.770;2023-06-14T01:01:30;103.43;;;97.07;;
59366;SDS011;45163;47.690;11.770;2023-06-14T01:03:58;99.00;;;92.87;;
59366;SDS011;45163;47.690;11.770;2023-06-14T01:06:35;84.83;;;79.67;;
59366;SDS011;45163;47.690;11.770;2023-06-14T01:11:54;71.93;;;67.67;;
59366;SDS011;45163;47.690;11.770;2023-06-14T01:14:49;58.37;;;54.83;;
59366;SDS011;45163;47.690;11.770;2023-06-14T01:17:17;56.63;;;53.33;;
59366;SDS011;45163;47.690;11.770;2023-06-14T01:19:43;54.10;;;50.87;;
59366;SDS011;45163;47.690;11.770;2023-06-14T01:22:11;48.57;;;45.47;;
59366;SDS011;45163;47.690;11.770;2023-06-14T01:24:37;46.37;;;43.47;;
59366;SDS011;45163;47.690;11.770;2023-06-14T01:27:05;39.73;;;37.50;;
59366;SDS011;45163;47.690;11.770;2023-06-14T01:29:32;35.60;;;33.57;;
59366;SDS011;45163;47.690;11.770;2023-06-14T01:31:59;29.73;;;28.10;;
59366;SDS011;45163;47.690;11.770;2023-06-14T01:34:26;25.80;;;24.30;;
59366;SDS011;45163;47.690;11.770;2023-06-14T01:36:52;27.40;;;25.83;;
59366;SDS011;45163;47.690;11.770;2023-06-14T01:39:20;27.13;;;25.63;;
59366;SDS011;45163;47.690;11.770;2023-06-14T01:41:48;26.90;;;25.40;;
59366;SDS011;45163;47.690;11.770;2023-06-14T01:44:16;24.00;;;22.60;;
59366;SDS011;45163;47.690;11.770;2023-06-14T01:46:44;22.97;;;21.60;;
59366;SDS011;45163;47.690;11.770;2023-06-14T01:49:11;22.80;;;21.40;;
59366;SDS011;45163;47.690;11.770;2023-06-14T01:51:37;25.43;;;23.73;;
59366;SDS011;45163;47.690;11.770;2023-06-14T01:54:03;26.50;;;25.07;;
59366;SDS011;45163;47.690;11.770;2023-06-14T01:56:29;21.77;;;20.57;;
59366;SDS011;45163;47.690;11.770;2023-06-14T01:58:55;23.83;;;22.43;;
59366;SDS011;45163;47.690;11.770;2023-06-14T02:01:21;23.37;;;22.03;;
59366;SDS011;45163;47.690;11.770;2023-06-14T02:03:47;22.37;;;21.13;;
59366;SDS011;45163;47.690;11.770;2023-06-14T02:06:14;23.63;;;22.33;;
59366;SDS011;45163;47.690;11.770;2023-06-14T02:08:41;25.07;;;23.63;;
59366;SDS011;45163;47.690;11.770;2023-06-14T02:11:08;22.20;;;20.90;;
59366;SDS011;45163;47.690;11.770;2023-06-14T02:13:34;21.20;;;19.97;;
59366;SDS011;45163;47.690;11.770;2023-06-14T02:16:00;22.30;;;21.00;;
59366;SDS011;45163;47.690;11.770;2023-06-14T02:18:26;22.17;;;20.97;;
59366;SDS011;45163;47.690;11.770;2023-06-14T02:20:52;23.43;;;22.10;;
59366;SDS011;45163;47.690;11.770;2023-06-14T02:23:18;23.87;;;22.57;;
59366;SDS011;45163;47.690;11.770;2023-06-14T02:25:45;22.37;;;21.07;;
59366;SDS011;45163;47.690;11.770;2023-06-14T02:28:11;25.73;;;24.23;;
59366;SDS011;45163;47.690;11.770;2023-06-14T02:30:37;23.67;;;22.30;;
59366;SDS011;45163;47.690;11.770;2023-06-14T02:33:04;22.20;;;20.70;;
59366;SDS011;45163;47.690;11.770;2023-06-14T02:35:30;22.07;;;20.83;;
59366;SDS011;45163;47.690;11.770;2023-06-14T02:37:56;22.63;;;21.30;;
59366;SDS011;45163;47.690;11.770;2023-06-14T02:40:22;23.47;;;22.17;;
59366;SDS011;45163;47.690;11.770;2023-06-14T02:42:48;21.13;;;20.00;;
59366;SDS011;45163;47.690;11.770;2023-06-14T02:45:14;22.27;;;21.03;;
59366;SDS011;45163;47.690;11.770;2023-06-14T02:47:40;27.57;;;26.07;;
59366;SDS011;45163;47.690;11.770;2023-06-14T02:50:07;27.37;;;25.87;;
59366;SDS011;45163;47.690;11.770;2023-06-14T02:52:33;29.90;;;28.30;;
59366;SDS011;45163;47.690;11.770;2023-06-14T02:54:59;38.60;;;36.40;;
59366;SDS011;45163;47.690;11.770;2023-06-14T02:57:25;28.50;;;26.93;;
59366;SDS011;45163;47.690;11.770;2023-06-14T02:59:51;27.97;;;26.43;;
59366;SDS011;45163;47.690;11.770;2023-06-14T03:02:18;29.87;;;28.27;;
59366;SDS011;45163;47.690;11.770;2023-06-14T03:04:44;35.63;;;33.57;;
59366;SDS011;45163;47.690;11.770;2023-06-14T03:07:12;34.83;;;32.87;;
59366;SDS011;45163;47.690;11.770;2023-06-14T03:09:38;35.13;;;33.23;;
59366;SDS011;45163;47.690;11.770;2023-06-14T03:12:05;32.23;;;30.37;;
59366;SDS011;45163;47.690;11.770;2023-06-14T03:14:32;38.87;;;36.70;;
59366;SDS011;45163;47.690;11.770;2023-06-14T03:16:58;42.87;;;40.47;;
59366;SDS011;45163;47.690;11.770;2023-06-14T03:19:26;36.73;;;34.67;;
59366;SDS011;45163;47.690;11.770;2023-06-14T03:21:52;44.87;;;42.37;;
59366;SDS011;45163;47.690;11.770;2023-06-14T03:24:19;38.37;;;35.97;;
59366;SDS011;45163;47.690;11.770;2023-06-14T03:26:45;46.17;;;43.63;;
59366;SDS011;45163;47.690;11.770;2023-06-14T03:29:11;36.00;;;34.03;;
59366;SDS011;45163;47.690;11.770;2023-06-14T03:31:42;44.80;;;42.27;;
59366;SDS011;45163;47.690;11.770;2023-06-14T03:34:22;37.60;;;35.53;;
59366;SDS011;45163;47.690;11.770;2023-06-14T03:36:48;51.13;;;48.30;;
59366;SDS011;45163;47.690;11.770;2023-06-14T03:39:15;40.23;;;38.03;;
59366;SDS011;45163;47.690;11.770;2023-06-14T03:41:41;41.07;;;38.77;;
59366;SDS011;45163;47.690;11.770;2023-06-14T03:44:06;41.63;;;39.33;;
59366;SDS011;45163;47.690;11.770;2023-06-14T03:46:32;51.93;;;49.07;;
59366;SDS011;45163;47.690;11.770;2023-06-14T03:48:58;44.70;;;42.27;;
59366;SDS011;45163;47.690;11.770;2023-06-14T03:51:25;49.07;;;46.30;;
59366;SDS011;45163;47.690;11.770;2023-06-14T03:53:51;40.13;;;37.93;;
59366;SDS011;45163;47.690;11.770;2023-06-14T03:56:17;44.17;;;41.70;;
59366;SDS011;45163;47.690;11.770;2023-06-14T03:58:43;58.93;;;55.63;;
59366;SDS011;45163;47.690;11.770;2023-06-14T04:01:09;39.87;;;37.67;;
59366;SDS011;45163;47.690;11.770;2023-06-14T04:03:37;43.07;;;40.57;;
59366;SDS011;45163;47.690;11.770;2023-06-14T04:06:04;43.57;;;41.17;;
59366;SDS011;45163;47.690;11.770;2023-06-14T04:08:31;43.70;;;41.27;;
59366;SDS011;45163;47.690;11.770;2023-06-14T04:10:57;59.97;;;56.63;;
59366;SDS011;45163;47.690;11.770;2023-06-14T04:13:23;55.63;;;52.53;;
59366;SDS011;45163;47.690;11.770;2023-06-14T04:15:49;53.97;;;50.97;;
59366;SDS011;45163;47.690;11.770;2023-06-14T04:18:15;45.47;;;42.93;;
59366;SDS011;45163;47.690;11.770;2023-06-14T04:20:41;48.50;;;45.70;;
59366;SDS011;45163;47.690;11.770;2023-06-14T04:23:13;43.60;;;41.13;;
59366;SDS011;45163;47.690;11.770;2023-06-14T04:25:47;46.43;;;43.83;;
59366;SDS011;45163;47.690;11.770;2023-06-14T04:28:15;54.00;;;50.93;;
59366;SDS011;45163;47.690;11.770;2023-06-14T04:30:41;48.83;;;45.93;;
59366;SDS011;45163;47.690;11.770;2023-06-14T04:33:08;53.10;;;49.93;;
59366;SDS011;45163;47.690;11.770;2023-06-14T04:35:35;67.73;;;63.93;;
59366;SDS011;45163;47.690;11.770;2023-06-14T04:38:03;47.40;;;44.67;;
59366;SDS011;45163;47.690;11.770;2023-06-14T04:40:38;61.20;;;57.53;;
59366;SDS011;45163;47.690;11.770;2023-06-14T04:43:11;40.83;;;38.53;;
59366;SDS011;45163;47.690;11.770;2023-06-14T04:45:40;51.20;;;48.20;;
59366;SDS011;45163;47.690;11.770;2023-06-14T04:48:10;43.73;;;41.23;;
59366;SDS011;45163;47.690;11.770;2023-06-14T04:50:37;52.87;;;49.97;;
59366;SDS011;45163;47.690;11.770;2023-06-14T04:53:05;64.90;;;61.30;;
59366;SDS011;45163;47.690;11.770;2023-06-14T04:55:32;64.53;;;60.90;;
59366;SDS011;45163;47.690;11.770;2023-06-14T04:57:58;48.73;;;45.93;;
59366;SDS011;45163;47.690;11.770;2023-06-14T05:00:25;69.20;;;65.30;;
59366;SDS011;45163;47.690;11.770;2023-06-14T05:02:51;85.87;;;80.93;;
59366;SDS011;45163;47.690;11.770;2023-06-14T05:05:18;57.83;;;54.43;;
59366;SDS011;45163;47.690;11.770;2023-06-14T05:07:45;68.17;;;63.77;;
59366;SDS011;45163;47.690;11.770;2023-06-14T05:10:12;69.00;;;65.07;;
59366;SDS011;45163;47.690;11.770;2023-06-14T05:12:37;61.37;;;57.73;;
59366;SDS011;45163;47.690;11.770;2023-06-14T05:15:03;66.13;;;62.23;;
59366;SDS011;45163;47.690;11.770;2023-06-14T05:17:30;70.53;;;66.33;;
59366;SDS011;45163;47.690;11.770;2023-06-14T05:19:56;82.43;;;77.63;;
59366;SDS011;45163;47.690;11.770;2023-06-14T05:22:22;75.53;;;71.10;;
59366;SDS011;45163;47.690;11.770;2023-06-14T05:24:48;71.30;;;67.07;;
59366;SDS011;45163;47.690;11.770;2023-06-14T05:27:14;72.33;;;67.97;;
59366;SDS011;45163;47.690;11.770;2023-06-14T05:29:40;71.23;;;66.80;;
59366;SDS011;45163;47.690;11.770;2023-06-14T05:32:06;72.17;;;67.77;;
59366;SDS011;45163;47.690;11.770;2023-06-14T05:34:32;71.87;;;67.47;;
59366;SDS011;45163;47.690;11.770;2023-06-14T05:36:58;65.57;;;61.67;;
59366;SDS011;45163;47.690;11.770;2023-06-14T05:39:24;64.00;;;60.10;;
59366;SDS011;45163;47.690;11.770;2023-06-14T05:41:50;57.83;;;54.10;;
59366;SDS011;45163;47.690;11.770;2023-06-14T05:44:16;59.20;;;55.70;;
59366;SDS011;45163;47.690;11.770;2023-06-14T05:46:43;62.37;;;58.83;;
59366;SDS011;45163;47.690;11.770;2023-06-14T05:49:09;59.53;;;56.13;;
59366;SDS011;45163;47.690;11.770;2023-06-14T05:51:35;71.03;;;66.83;;
59366;SDS011;45163;47.690;11.770;2023-06-14T05:54:01;76.03;;;71.73;;
59366;SDS011;45163;47.690;11.770;2023-06-14T05:56:27;67.73;;;63.97;;
59366;SDS011;45163;47.690;11.770;2023-06-14T05:58:53;66.87;;;63.00;;
59366;SDS011;45163;47.690;11.770;2023-06-14T06:01:19;94.37;;;89.20;;
59366;SDS011;45163;47.690;11.770;2023-06-14T06:03:45;107.87;;;101.97;;
59366;SDS011;45163;47.690;11.770;2023-06-14T06:06:12;140.83;;;133.20;;
59366;SDS011;45163;47.690;11.770;2023-06-14T06:08:38;165.07;;;155.93;;
59366;SDS011;45163;47.690;11.770;2023-06-14T06:11:04;181.27;;;171.07;;
59366;SDS011;45163;47.690;11.770;2023-06-14T06:13:30;193.63;;;182.30;;
59366;SDS011;45163;47.690;11.770;2023-06-14T06:15:56;179.50;;;168.70;;
59366;SDS011;45163;47.690;11.770;2023-06-14T06:18:23;193.53;;;181.97;;
59366;SDS011;45163;47.690;11.770;2023-06-14T06:20:49;202.30;;;190.03;;
59366;SDS011;45163;47.690;11.770;2023-06-14T06:23:15;222.07;;;208.63;;
59366;SDS011;45163;47.690;11.770;2023-06-14T06:25:42;241.67;;;227.17;;
59366;SDS011;45163;47.690;11.770;2023-06-14T06:28:08;192.07;;;180.83;;
59366;SDS011;45163;47.690;11.770;2023-06-14T06:30:34;148.00;;;139.53;;
59366;SDS011;45163;47.690;11.770;2023-06-14T06:33:02;145.90;;;137.20;;
59366;SDS011;45163;47.690;11.770;2023-06-14T06:35:28;192.67;;;181.90;;
59366;SDS011;45163;47.690;11.770;2023-06-14T06:37:56;248.90;;;234.43;;
59366;SDS011;45163;47.690;11.770;2023-06-14T06:40:22;255.47;;;240.53;;
59366;SDS011;45163;47.690;11.770;2023-06-14T06:42:48;249.37;;;234.37;;
59366;SDS011;45163;47.690;11.770;2023-06-14T06:45:15;251.70;;;237.30;;
59366;SDS011;45163;47.690;11.770;2023-06-14T06:47:41;274.47;;;258.90;;
59366;SDS011;45163;47.690;11.770;2023-06-14T06:50:07;261.20;;;246.27;;
59366;SDS011;45163;47.690;11.770;2023-06-14T06:52:34;295.13;;;277.97;;
59366;SDS011;45163;47.690;11.770;2023-06-14T06:55:00;287.83;;;271.17;;
59366;SDS011;45163;47.690;11.770;2023-06-14T06:57:28;269.50;;;253.90;;
59366;SDS011;45163;47.690;11.770;2023-06-14T06:59:55;264.10;;;248.83;;
59366;SDS011;45163;47.690;11.770;2023-06-14T07:02:21;272.93;;;256.47;;
59366;SDS011;45163;47.690;11.770;2023-06-14T07:04:47;292.67;;;275.13;;
59366;SDS011;45163;47.690;11.770;2023-06-14T07:07:13;291.07;;;274.20;;
59366;SDS011;45163;47.690;11.770;2023-06-14T07:09:39;268.33;;;252.10;;
59366;SDS011;45163;47.690;11.770;2023-06-14T07:12:07;287.23;;;269.30;;
59366;SDS011;45163;47.690;11.770;2023-06-14T07:14:33;301.03;;;282.50;;
59366;SDS011;45163;47.690;11.770;2023-06-14T07:16:59;313.00;;;293.83;;
59366;SDS011;45163;47.690;11.770;2023-06-14T07:19:25;315.73;;;296.33;;
59366;SDS011;45163;47.690;11.770;2023-06-14T07:21:51;262.20;;;245.98;;
59366;SDS011;45163;47.690;11.770;2023-06-14T07:24:17;295.58;;;276.45;;
59366;SDS011;45163;47.690;11.770;2023-06-14T07:26:43;242.45;;;226.73;;
59366;SDS011;45163;47.690;11.770;2023-06-14T07:29:09;292.30;;;273.60;;
59366;SDS011;45163;47.690;11.770;2023-06-14T07:31:35;381.42;;;357.60;;
59366;SDS011;45163;47.690;11.770;2023-06-14T07:34:01;440.27;;;412.83;;
59366;SDS011;45163;47.690;11.770;2023-06-14T07:36:27;474.48;;;444.40;;
59366;SDS011;45163;47.690;11.770;2023-06-14T07:38:53;446.42;;;419.10;;
59366;SDS011;45163;47.690;11.770;2023-06-14T07:41:19;323.45;;;303.63;;
59366;SDS011;45163;47.690;11.770;2023-06-14T07:43:45;302.90;;;284.38;;
59366;SDS011;45163;47.690;11.770;2023-06-14T07:46:11;293.83;;;275.85;;
59366;SDS011;45163;47.690;11.770;2023-06-14T07:48:37;304.08;;;286.05;;
59366;SDS011;45163;47.690;11.770;2023-06-14T07:51:03;401.42;;;376.10;;
59366;SDS011;45163;47.690;11.770;2023-06-14T07:53:30;439.15;;;411.75;;
59366;SDS011;45163;47.690;11.770;2023-06-14T07:55:59;439.80;;;411.88;;
59366;SDS011;45163;47.690;11.770;2023-06-14T07:58:26;414.13;;;387.00;;
59366;SDS011;45163;47.690;11.770;2023-06-14T08:00:52;466.88;;;437.02;;
59366;SDS011;45163;47.690;11.770;2023-06-14T08:03:18;522.35;;;488.00;;
59366;SDS011;45163;47.690;11.770;2023-06-14T08:05:45;491.80;;;459.45;;
59366;SDS011;45163;47.690;11.770;2023-06-14T08:08:11;502.25;;;469.52;;
59366;SDS011;45163;47.690;11.770;2023-06-14T08:10:37;492.00;;;461.27;;
59366;SDS011;45163;47.690;11.770;2023-06-14T08:13:03;433.33;;;405.85;;
59366;SDS011;45163;47.690;11.770;2023-06-14T08:15:29;474.95;;;445.42;;
59366;SDS011;45163;47.690;11.770;2023-06-14T08:17:55;434.42;;;406.95;;
59366;SDS011;45163;47.690;11.770;2023-06-14T08:20:21;428.35;;;398.60;;
59366;SDS011;45163;47.690;11.770;2023-06-14T08:22:47;430.15;;;400.55;;
59366;SDS011;45163;47.690;11.770;2023-06-14T08:25:13;412.80;;;385.02;;
59366;SDS011;45163;47.690;11.770;2023-06-14T08:27:40;327.88;;;307.17;;
59366;SDS011;45163;47.690;11.770;2023-06-14T08:30:07;320.05;;;299.75;;
59366;SDS011;45163;47.690;11.770;2023-06-14T08:32:33;316.75;;;297.13;;
59366;SDS011;45163;47.690;11.770;2023-06-14T08:34:59;283.50;;;266.48;;
59366;SDS011;45163;47.690;11.770;2023-06-14T08:37:25;266.15;;;250.00;;
59366;SDS011;45163;47.690;11.770;2023-06-14T08:39:52;243.80;;;229.90;;
59366;SDS011;45163;47.690;11.770;2023-06-14T08:42:18;254.98;;;239.70;;
59366;SDS011;45163;47.690;11.770;2023-06-14T08:44:46;258.30;;;243.27;;
59366;SDS011;45163;47.690;11.770;2023-06-14T08:47:12;259.73;;;245.10;;
59366;SDS011;45163;47.690;11.770;2023-06-14T08:49:39;272.58;;;256.33;;
59366;SDS011;45163;47.690;11.770;2023-06-14T08:52:10;252.65;;;237.93;;
59366;SDS011;45163;47.690;11.770;2023-06-14T08:54:38;257.95;;;243.02;;
59366;SDS011;45163;47.690;11.770;2023-06-14T08:57:10;274.70;;;258.95;;
59366;SDS011;45163;47.690;11.770;2023-06-14T08:59:44;229.45;;;216.30;;
59366;SDS011;45163;47.690;11.770;2023-06-14T09:02:15;360.95;;;338.08;;
59366;SDS011;45163;47.690;11.770;2023-06-14T09:04:43;351.83;;;330.38;;
59366;SDS011;45163;47.690;11.770;2023-06-14T09:07:10;304.80;;;287.65;;
59366;SDS011;45163;47.690;11.770;2023-06-14T09:09:39;336.67;;;316.33;;
59366;SDS011;45163;47.690;11.770;2023-06-14T09:12:07;316.70;;;297.67;;
59366;SDS011;45163;47.690;11.770;2023-06-14T09:14:36;417.42;;;389.48;;
59366;SDS011;45163;47.690;11.770;2023-06-14T09:17:05;369.10;;;343.42;;
59366;SDS011;45163;47.690;11.770;2023-06-14T09:19:31;278.20;;;260.38;;
59366;SDS011;45163;47.690;11.770;2023-06-14T09:22:02;289.38;;;270.52;;
59366;SDS011;45163;47.690;11.770;2023-06-14T09:24:29;295.50;;;276.50;;
59366;SDS011;45163;47.690;11.770;2023-06-14T09:26:55;310.40;;;289.30;;
59366;SDS011;45163;47.690;11.770;2023-06-14T09:29:23;376.50;;;351.90;;
59366;SDS011;45163;47.690;11.770;2023-06-14T09:31:49;325.60;;;303.38;;
59366;SDS011;45163;47.690;11.770;2023-06-14T09:34:15;288.40;;;269.75;;
59366;SDS011;45163;47.690;11.770;2023-06-14T09:36:43;284.45;;;265.92;;
59366;SDS011;45163;47.690;11.770;2023-06-14T09:39:09;285.77;;;267.83;;
59366;SDS011;45163;47.690;11.770;2023-06-14T09:41:36;288.42;;;269.02;;
59366;SDS011;45163;47.690;11.770;2023-06-14T09:44:08;326.10;;;305.73;;
59366;SDS011;45163;47.690;11.770;2023-06-14T09:46:36;204.13;;;193.18;;
59366;SDS011;45163;47.690;11.770;2023-06-14T09:49:03;219.30;;;206.93;;
59366;SDS011;45163;47.690;11.770;2023-06-14T09:51:30;229.15;;;215.77;;
59366;SDS011;45163;47.690;11.770;2023-06-14T09:54:00;351.85;;;330.48;;
59366;SDS011;45163;47.690;11.770;2023-06-14T09:56:27;386.65;;;362.15;;
59366;SDS011;45163;47.690;11.770;2023-06-14T09:58:55;428.27;;;400.00;;
59366;SDS011;45163;47.690;11.770;2023-06-14T10:01:26;284.25;;;266.98;;
59366;SDS011;45163;47.690;11.770;2023-06-14T10:04:03;315.70;;;296.20;;
59366;SDS011;45163;47.690;11.770;2023-06-14T10:06:31;268.65;;;252.40;;
59366;SDS011;45163;47.690;11.770;2023-06-14T10:09:02;249.80;;;234.88;;
59366;SDS011;45163;47.690;11.770;2023-06-14T10:11:29;261.25;;;245.27;;
59366;SDS011;45163;47.690;11.770;2023-06-14T10:13:56;288.63;;;270.92;;
59366;SDS011;45163;47.690;11.770;2023-06-14T10:16:24;376.98;;;352.70;;
59366;SDS011;45163;47.690;11.770;2023-06-14T10:19:03;387.20;;;361.80;;
59366;SDS011;45163;47.690;11.770;2023-06-14T10:24:08;309.05;;;290.17;;
59366;SDS011;45163;47.690;11.770;2023-06-14T10:26:49;370.58;;;346.80;;
59366;SDS011;45163;47.690;11.770;2023-06-14T10:29:17;356.95;;;334.45;;
59366;SDS011;45163;47.690;11.770;2023-06-14T10:31:43;219.80;;;206.70;;
59366;SDS011;45163;47.690;11.770;2023-06-14T10:34:11;222.48;;;208.95;;
59366;SDS011;45163;47.690;11.770;2023-06-14T10:36:46;219.07;;;206.15;;
59366;SDS011;45163;47.690;11.770;2023-06-14T10:39:37;374.90;;;351.30;;
59366;SDS011;45163;47.690;11.770;2023-06-14T10:42:05;389.95;;;364.08;;
59366;SDS011;45163;47.690;11.770;2023-06-14T10:44:38;352.05;;;328.55;;
59366;SDS011;45163;47.690;11.770;2023-06-14T10:47:06;360.65;;;337.00;;
59366;SDS011;45163;47.690;11.770;2023-06-14T10:49:37;355.75;;;332.25;;
59366;SDS011;45163;47.690;11.770;2023-06-14T10:52:07;371.30;;;347.10;;
59366;SDS011;45163;47.690;11.770;2023-06-14T10:54:37;362.95;;;340.10;;
59366;SDS011;45163;47.690;11.770;2023-06-14T10:57:04;354.02;;;330.42;;
59366;SDS011;45163;47.690;11.770;2023-06-14T10:59:33;349.33;;;326.45;;
59366;SDS011;45163;47.690;11.770;2023-06-14T11:05:14;354.27;;;330.80;;
59366;SDS011;45163;47.690;11.770;2023-06-14T11:13:04;450.25;;;419.40;;
59366;SDS011;45163;47.690;11.770;2023-06-14T11:15:31;445.10;;;416.73;;
59366;SDS011;45163;47.690;11.770;2023-06-14T11:18:02;478.23;;;448.20;;
59366;SDS011;45163;47.690;11.770;2023-06-14T11:20:32;486.85;;;455.52;;
59366;SDS011;45163;47.690;11.770;2023-06-14T11:23:00;446.80;;;419.05;;
59366;SDS011;45163;47.690;11.770;2023-06-14T11:25:26;441.23;;;413.27;;
59366;SDS011;45163;47.690;11.770;2023-06-14T11:27:56;463.58;;;434.35;;
59366;SDS011;45163;47.690;11.770;2023-06-14T11:30:23;475.90;;;445.60;;
59366;SDS011;45163;47.690;11.770;2023-06-14T11:32:51;381.15;;;355.92;;
59366;SDS011;45163;47.690;11.770;2023-06-14T11:35:21;382.48;;;357.38;;
59366;SDS011;45163;47.690;11.770;2023-06-14T11:37:54;419.40;;;393.17;;
59366;SDS011;45163;47.690;11.770;2023-06-14T11:40:24;408.13;;;382.45;;
59366;SDS011;45163;47.690;11.770;2023-06-14T11:42:58;408.02;;;381.00;;
59366;SDS011;45163;47.690;11.770;2023-06-14T11:45:26;371.42;;;347.33;;
59366;SDS011;45163;47.690;11.770;2023-06-14T11:47:54;323.80;;;301.40;;
59366;SDS011;45163;47.690;11.770;2023-06-14T11:50:24;389.00;;;364.33;;
59366;SDS011;45163;47.690;11.770;2023-06-14T11:52:52;420.20;;;394.20;;
59366;SDS011;45163;47.690;11.770;2023-06-14T11:55:23;402.05;;;378.08;;
59366;SDS011;45163;47.690;11.770;2023-06-14T11:57:49;426.33;;;399.73;;
59366;SDS011;45163;47.690;11.770;2023-06-14T12:00:15;436.90;;;409.83;;
59366;SDS011;45163;47.690;11.770;2023-06-14T12:02:43;438.88;;;412.33;;
59366;SDS011;45163;47.690;11.770;2023-06-14T12:05:20;379.92;;;356.27;;
59366;SDS011;45163;47.690;11.770;2023-06-14T12:07:47;418.15;;;390.75;;
59366;SDS011;45163;47.690;11.770;2023-06-14T12:10:14;276.20;;;259.90;;
59366;SDS011;45163;47.690;11.770;2023-06-14T12:12:40;404.75;;;377.42;;
59366;SDS011;45163;47.690;11.770;2023-06-14T12:15:07;379.38;;;353.23;;
59366;SDS011;45163;47.690;11.770;2023-06-14T12:17:37;411.60;;;382.65;;
59366;SDS011;45163;47.690;11.770;2023-06-14T12:20:13;401.75;;;374.75;;
59366;SDS011;45163;47.690;11.770;2023-06-14T12:22:52;404.02;;;377.02;;
59366;SDS011;45163;47.690;11.770;2023-06-14T12:25:37;461.05;;;431.10;;
59366;SDS011;45163;47.690;11.770;2023-06-14T12:28:06;444.83;;;415.50;;
59366;SDS011;45163;47.690;11.770;2023-06-14T12:30:33;433.35;;;405.27;;
59366;SDS011;45163;47.690;11.770;2023-06-14T12:33:02;454.30;;;424.67;;
59366;SDS011;45163;47.690;11.770;2023-06-14T12:35:31;473.80;;;443.00;;
59366;SDS011;45163;47.690;11.770;2023-06-14T12:37:57;461.27;;;431.63;;
59366;SDS011;45163;47.690;11.770;2023-06-14T12:40:23;449.58;;;420.05;;
59366;SDS011;45163;47.690;11.770;2023-06-14T12:42:50;457.50;;;427.13;;
59366;SDS011;45163;47.690;11.770;2023-06-14T12:45:17;472.67;;;441.27;;
59366;SDS011;45163;47.690;11.770;2023-06-14T12:47:43;412.75;;;386.75;;
59366;SDS011;45163;47.690;11.770;2023-06-14T12:50:09;408.33;;;381.83;;
59366;SDS011;45163;47.690;11.770;2023-06-14T12:52:35;381.48;;;355.90;;
59366;SDS011;45163;47.690;11.770;2023-06-14T12:55:07;380.00;;;354.38;;
59366;SDS011;45163;47.690;11.770;2023-06-14T12:57:33;414.23;;;385.45;;
59366;SDS011;45163;47.690;11.770;2023-06-14T13:00:02;392.25;;;365.50;;
59366;SDS011;45163;47.690;11.770;2023-06-14T13:02:28;438.20;;;409.77;;
59366;SDS011;45163;47.690;11.770;2023-06-14T13:04:54;466.10;;;434.75;;
59366;SDS011;45163;47.690;11.770;2023-06-14T13:07:21;452.02;;;422.80;;
59366;SDS011;45163;47.690;11.770;2023-06-14T13:09:47;361.10;;;338.45;;
59366;SDS011;45163;47.690;11.770;2023-06-14T13:12:13;363.48;;;340.08;;
59366;SDS011;45163;47.690;11.770;2023-06-14T13:14:40;401.60;;;376.70;;
59366;SDS011;45163;47.690;11.770;2023-06-14T13:17:10;479.30;;;448.80;;
59366;SDS011;45163;47.690;11.770;2023-06-14T13:19:36;508.88;;;474.38;;
59366;SDS011;45163;47.690;11.770;2023-06-14T13:22:03;528.03;;;492.00;;
59366;SDS011;45163;47.690;11.770;2023-06-14T13:24:29;496.98;;;460.77;;
59366;SDS011;45163;47.690;11.770;2023-06-14T13:26:56;495.95;;;463.85;;
59366;SDS011;45163;47.690;11.770;2023-06-14T13:29:22;479.52;;;448.30;;
59366;SDS011;45163;47.690;11.770;2023-06-14T13:31:49;420.85;;;391.10;;
59366;SDS011;45163;47.690;11.770;2023-06-14T13:34:15;406.35;;;376.90;;
59366;SDS011;45163;47.690;11.770;2023-06-14T13:36:41;378.67;;;351.38;;
59366;SDS011;45163;47.690;11.770;2023-06-14T13:39:07;395.52;;;367.25;;
59366;SDS011;45163;47.690;11.770;2023-06-14T13:41:33;449.88;;;420.58;;
59366;SDS011;45163;47.690;11.770;2023-06-14T13:44:00;387.83;;;360.33;;
59366;SDS011;45163;47.690;11.770;2023-06-14T13:46:29;431.67;;;401.08;;
59366;SDS011;45163;47.690;11.770;2023-06-14T13:48:56;420.58;;;391.35;;
59366;SDS011;45163;47.690;11.770;2023-06-14T13:51:23;404.88;;;377.00;;
59366;SDS011;45163;47.690;11.770;2023-06-14T13:53:49;348.55;;;323.58;;
59366;SDS011;45163;47.690;11.770;2023-06-14T13:56:16;391.85;;;364.02;;
59366;SDS011;45163;47.690;11.770;2023-06-14T13:58:42;412.05;;;383.50;;
59366;SDS011;45163;47.690;11.770;2023-06-14T14:01:09;365.67;;;339.98;;
59366;SDS011;45163;47.690;11.770;2023-06-14T14:03:35;367.40;;;341.70;;
59366;SDS011;45163;47.690;11.770;2023-06-14T14:06:04;421.05;;;391.70;;
59366;SDS011;45163;47.690;11.770;2023-06-14T14:08:32;390.75;;;362.95;;